createdAt,value
2023-02-19T00:00:57.533Z,20.52
2023-02-19T00:03:24.155Z,27.10
2023-02-19T00:05:50.550Z,26.40
2023-02-19T00:08:16.993Z,24.85
2023-02-19T00:10:43.373Z,37.65
2023-02-19T00:13:09.733Z,29.05
2023-02-19T00:15:36.237Z,27.45
2023-02-19T00:18:02.620Z,20.20
2023-02-19T00:20:29.024Z,17.27
2023-02-19T00:22:55.649Z,33.97
2023-02-19T00:25:21.981Z,24.38
2023-02-19T00:27:48.353Z,28.27
2023-02-19T00:30:14.868Z,25.85
2023-02-19T00:32:41.255Z,16.38
2023-02-19T00:35:10.625Z,25.10
2023-02-19T00:37:40.098Z,20.73
2023-02-19T00:40:06.656Z,17.02
2023-02-19T00:42:33.137Z,21.90
2023-02-19T00:44:59.495Z,27.73
2023-02-19T00:47:25.819Z,24.45
2023-02-19T00:49:52.199Z,20.35
2023-02-19T00:52:18.615Z,29.25
2023-02-19T00:54:45.011Z,25.50
2023-02-19T00:57:13.630Z,24.75
2023-02-19T00:59:40.022Z,22.65
2023-02-19T01:02:06.338Z,18.80
2023-02-19T01:04:32.748Z,35.78
2023-02-19T01:06:59.094Z,19.13
2023-02-19T01:09:25.475Z,23.75
2023-02-19T01:11:51.910Z,20.85
2023-02-19T01:14:18.375Z,25.27
2023-02-19T01:16:44.746Z,17.23
2023-02-19T01:19:11.795Z,17.52
2023-02-19T01:21:39.619Z,33.05
2023-02-19T01:24:06.013Z,26.35
2023-02-19T01:26:33.148Z,32.08
2023-02-19T01:29:00.157Z,27.17
2023-02-19T01:31:26.711Z,24.90
2023-02-19T01:33:55.112Z,24.33
2023-02-19T01:36:21.767Z,23.40
2023-02-19T01:38:48.654Z,25.48
2023-02-19T01:41:16.955Z,26.73
2023-02-19T01:44:00.340Z,22.23
2023-02-19T01:46:30.626Z,28.33
2023-02-19T01:48:59.115Z,28.02
2023-02-19T01:51:25.914Z,27.23
2023-02-19T01:53:55.069Z,25.65
2023-02-19T01:56:22.312Z,26.15
2023-02-19T01:58:48.779Z,21.13
2023-02-19T02:01:15.437Z,30.77
2023-02-19T02:03:44.799Z,24.95
2023-02-19T02:06:14.773Z,32.83
2023-02-19T02:08:59.874Z,33.65
2023-02-19T02:11:26.550Z,20.08
2023-02-19T02:13:53.553Z,23.15
2023-02-19T02:16:23.518Z,23.67
2023-02-19T02:18:52.910Z,26.30
2023-02-19T02:21:38.138Z,31.90
2023-02-19T02:24:23.647Z,27.02
2023-02-19T02:27:03.575Z,32.25
2023-02-19T02:29:47.063Z,24.15
2023-02-19T02:32:17.079Z,26.17
2023-02-19T02:34:52.815Z,27.13
2023-02-19T02:37:19.568Z,25.30
2023-02-19T02:39:47.646Z,23.13
2023-02-19T02:42:29.247Z,24.48
2023-02-19T02:45:34.803Z,25.63
2023-02-19T02:48:24.572Z,24.77
2023-02-19T02:50:51.270Z,26.05
2023-02-19T02:53:39.056Z,10.80
2023-02-19T02:56:05.576Z,29.20
2023-02-19T02:58:33.871Z,18.27
2023-02-19T03:01:26.878Z,13.43
2023-02-19T03:03:57.723Z,23.95
2023-02-19T03:06:25.862Z,14.60
2023-02-19T03:08:55.695Z,19.50
2023-02-19T03:11:41.049Z,19.25
2023-02-19T03:14:31.089Z,21.42
2023-02-19T03:17:18.842Z,18.90
2023-02-19T03:19:48.330Z,18.38
2023-02-19T03:22:20.271Z,17.77
2023-02-19T03:25:11.341Z,17.80
2023-02-19T03:27:39.046Z,23.70
2023-02-19T03:30:09.965Z,25.05
2023-02-19T03:32:42.689Z,19.38
2023-02-19T03:35:14.647Z,22.40
2023-02-19T03:37:50.866Z,11.52
2023-02-19T03:40:19.622Z,12.60
2023-02-19T03:43:00.020Z,15.45
2023-02-19T03:45:27.511Z,17.23
2023-02-19T03:47:59.624Z,23.02
2023-02-19T03:50:29.020Z,11.18
2023-02-19T03:52:59.538Z,10.43
2023-02-19T03:55:29.900Z,14.48
2023-02-19T03:58:01.224Z,21.63
2023-02-19T04:00:50.747Z,10.43
2023-02-19T04:03:27.085Z,18.55
2023-02-19T04:06:05.550Z,19.67
2023-02-19T04:08:33.468Z,18.10
2023-02-19T04:11:03.675Z,19.52
2023-02-19T04:13:37.503Z,13.32
2023-02-19T04:16:07.799Z,15.85
2023-02-19T04:18:38.845Z,13.32
2023-02-19T04:21:05.972Z,25.92
2023-02-19T04:23:35.552Z,17.02
2023-02-19T04:26:03.063Z,16.48
2023-02-19T04:28:30.984Z,17.58
2023-02-19T04:30:57.351Z,19.15
2023-02-19T04:33:24.851Z,20.20
2023-02-19T04:35:51.234Z,12.73
2023-02-19T04:38:17.813Z,18.63
2023-02-19T04:40:44.211Z,13.48
2023-02-19T04:43:10.669Z,24.80
2023-02-19T04:45:37.783Z,17.45
2023-02-19T04:48:04.694Z,19.48
2023-02-19T04:50:31.156Z,12.20
2023-02-19T04:52:57.483Z,20.30
2023-02-19T04:55:23.876Z,15.02
2023-02-19T04:57:50.219Z,17.50
2023-02-19T05:00:16.588Z,14.35
2023-02-19T05:02:42.970Z,12.27
2023-02-19T05:05:10.577Z,18.45
2023-02-19T05:07:36.962Z,19.10
2023-02-19T05:10:03.528Z,18.33
2023-02-19T05:12:31.001Z,16.58
2023-02-19T05:14:57.424Z,22.20
2023-02-19T05:17:23.819Z,22.77
2023-02-19T05:19:50.608Z,22.98
2023-02-19T05:22:17.089Z,15.73
2023-02-19T05:24:43.838Z,16.48
2023-02-19T05:27:10.163Z,14.82
2023-02-19T05:29:36.624Z,20.70
2023-02-19T05:32:03.041Z,16.17
2023-02-19T05:34:29.596Z,18.13
2023-02-19T05:36:55.992Z,20.05
2023-02-19T05:39:23.682Z,16.80
2023-02-19T05:41:50.006Z,21.67
2023-02-19T05:44:16.401Z,20.08
2023-02-19T05:46:42.771Z,18.15
2023-02-19T05:49:09.152Z,10.48
2023-02-19T05:51:35.594Z,26.83
2023-02-19T05:54:01.954Z,9.98
2023-02-19T05:56:32.500Z,23.27
2023-02-19T05:59:00.786Z,25.73
2023-02-19T06:01:28.026Z,12.57
2023-02-19T06:03:57.235Z,23.02
2023-02-19T06:06:24.364Z,15.45
2023-02-19T06:08:51.085Z,21.00
2023-02-19T06:11:17.973Z,19.65
2023-02-19T06:13:44.448Z,15.93
2023-02-19T06:16:14.081Z,20.50
2023-02-19T06:18:41.159Z,33.85
2023-02-19T06:21:09.190Z,16.33
2023-02-19T06:23:36.004Z,15.20
2023-02-19T06:26:06.617Z,24.27
2023-02-19T06:28:33.014Z,29.15
2023-02-19T06:30:59.419Z,18.67
2023-02-19T06:33:28.515Z,25.02
2023-02-19T06:36:00.676Z,16.88
2023-02-19T06:38:27.316Z,26.20
2023-02-19T06:40:53.660Z,24.80
2023-02-19T06:43:20.062Z,23.20
2023-02-19T06:45:46.728Z,17.30
2023-02-19T06:48:13.285Z,29.25
2023-02-19T06:50:39.672Z,27.38
2023-02-19T06:53:06.092Z,26.13
2023-02-19T06:55:32.453Z,21.33
2023-02-19T06:57:58.883Z,36.85
2023-02-19T07:00:25.251Z,18.02
2023-02-19T07:02:56.410Z,25.88
2023-02-19T07:05:23.243Z,25.92
2023-02-19T07:07:49.667Z,19.38
2023-02-19T07:10:16.269Z,30.60
2023-02-19T07:12:42.668Z,17.05
2023-02-19T07:15:09.250Z,27.75
2023-02-19T07:17:35.656Z,30.52
2023-02-19T07:20:02.088Z,27.50
2023-02-19T07:22:28.451Z,26.00
2023-02-19T07:24:57.453Z,25.17
2023-02-19T07:27:23.772Z,26.48
2023-02-19T07:29:50.169Z,38.47
2023-02-19T07:32:16.484Z,28.27
2023-02-19T07:34:45.283Z,23.58
2023-02-19T07:37:11.619Z,42.25
2023-02-19T07:39:37.998Z,19.85
2023-02-19T07:42:04.464Z,33.83
2023-02-19T07:44:32.105Z,38.22
2023-02-19T07:46:58.692Z,26.77
2023-02-19T07:49:24.992Z,36.78
2023-02-19T07:51:51.308Z,30.90
2023-02-19T07:54:17.703Z,25.92
2023-02-19T07:56:45.342Z,38.97
2023-02-19T07:59:12.016Z,34.80
2023-02-19T08:01:56.859Z,28.20
2023-02-19T08:04:23.165Z,34.30
2023-02-19T08:06:49.568Z,31.73
2023-02-19T08:09:18.532Z,31.17
2023-02-19T08:12:03.527Z,26.88
2023-02-19T08:14:29.940Z,35.20
2023-02-19T08:16:56.697Z,34.00
2023-02-19T08:19:23.205Z,34.13
2023-02-19T08:21:50.597Z,40.47
2023-02-19T08:24:17.093Z,31.65
2023-02-19T08:26:44.865Z,44.47
2023-02-19T08:29:13.036Z,45.00
2023-02-19T08:31:39.580Z,32.63
2023-02-19T08:34:07.134Z,37.10
2023-02-19T08:36:34.695Z,34.70
2023-02-19T08:39:01.071Z,40.85
2023-02-19T08:41:28.112Z,32.55
2023-02-19T08:43:54.868Z,27.83
2023-02-19T08:46:22.729Z,25.95
2023-02-19T08:48:49.314Z,21.90
2023-02-19T08:51:15.899Z,30.20
2023-02-19T08:53:43.239Z,28.85
2023-02-19T08:56:11.489Z,22.35
2023-02-19T08:58:37.953Z,24.98
2023-02-19T09:01:09.653Z,33.70
2023-02-19T09:03:36.640Z,29.50
2023-02-19T09:06:03.331Z,28.50
2023-02-19T09:08:29.888Z,25.02
2023-02-19T09:11:03.313Z,31.33
2023-02-19T09:13:30.795Z,32.35
2023-02-19T09:15:58.783Z,28.63
2023-02-19T09:18:26.766Z,32.53
2023-02-19T09:20:53.125Z,31.38
2023-02-19T09:23:19.532Z,28.85
2023-02-19T09:25:45.956Z,26.98
2023-02-19T09:28:12.334Z,35.28
2023-02-19T09:30:38.743Z,22.58
2023-02-19T09:33:05.497Z,35.03
2023-02-19T09:35:31.873Z,26.33
2023-02-19T09:38:00.978Z,33.08
2023-02-19T09:40:27.583Z,33.50
2023-02-19T09:42:53.913Z,35.40
2023-02-19T09:45:23.058Z,30.75
2023-02-19T09:47:53.298Z,31.38
2023-02-19T09:50:22.737Z,23.00
2023-02-19T09:52:54.755Z,11.77
2023-02-19T09:55:29.236Z,9.82
2023-02-19T09:57:56.513Z,5.05
2023-02-19T10:00:27.075Z,3.17
2023-02-19T10:03:30.546Z,3.38
2023-02-19T10:05:58.928Z,2.28
2023-02-19T10:08:25.330Z,6.65
2023-02-19T10:10:53.400Z,2.40
2023-02-19T10:13:37.297Z,4.75
2023-02-19T10:16:05.464Z,2.65
2023-02-19T10:18:41.124Z,4.38
2023-02-19T10:21:07.958Z,4.00
2023-02-19T10:23:35.815Z,3.55
2023-02-19T10:26:02.336Z,4.57
2023-02-19T10:28:30.241Z,4.63
2023-02-19T10:30:58.077Z,5.60
2023-02-19T10:33:24.790Z,4.95
2023-02-19T10:35:55.600Z,4.00
2023-02-19T10:38:32.603Z,3.17
2023-02-19T10:41:01.018Z,6.03
2023-02-19T10:43:34.825Z,3.75
2023-02-19T10:46:02.474Z,5.03
2023-02-19T10:48:32.234Z,3.25
2023-02-19T10:51:05.063Z,4.20
2023-02-19T10:53:45.173Z,3.75
2023-02-19T10:56:13.413Z,3.90
2023-02-19T10:58:42.323Z,6.05
2023-02-19T11:01:12.196Z,6.47
2023-02-19T11:03:39.122Z,6.82
2023-02-19T11:06:08.240Z,7.70
2023-02-19T11:08:44.993Z,4.15
2023-02-19T11:11:21.518Z,3.95
2023-02-19T11:13:47.915Z,4.25
2023-02-19T11:16:14.510Z,3.50
2023-02-19T11:18:43.760Z,4.03
2023-02-19T11:21:24.357Z,2.83
2023-02-19T11:23:50.876Z,4.10
2023-02-19T11:26:22.580Z,2.08
2023-02-19T11:29:15.121Z,2.17
2023-02-19T11:31:41.652Z,2.58
2023-02-19T11:34:11.575Z,2.63
2023-02-19T11:36:38.321Z,3.30
2023-02-19T11:39:16.821Z,2.72
2023-02-19T11:42:02.646Z,2.90
2023-02-19T11:44:47.823Z,3.17
2023-02-19T11:47:16.949Z,5.97
2023-02-19T11:49:47.927Z,3.95
2023-02-19T11:52:28.830Z,4.07
2023-02-19T11:55:18.575Z,2.53
2023-02-19T11:57:52.337Z,3.83
2023-02-19T12:00:18.681Z,2.40
2023-02-19T12:02:51.399Z,2.38
2023-02-19T12:07:53.104Z,2.05
2023-02-19T12:10:32.271Z,5.45
2023-02-19T12:13:14.309Z,2.00
2023-02-19T12:15:41.050Z,1.93
2023-02-19T12:18:22.978Z,2.15
2023-02-19T12:21:21.610Z,2.53
2023-02-19T12:24:06.599Z,2.58
2023-02-19T12:26:41.057Z,3.20
2023-02-19T12:29:25.997Z,2.47
2023-02-19T12:32:02.982Z,2.33
2023-02-19T12:34:41.538Z,2.88
2023-02-19T12:37:19.122Z,1.90
2023-02-19T12:39:55.530Z,1.73
2023-02-19T12:42:40.351Z,2.22
2023-02-19T12:45:16.116Z,2.17
2023-02-19T12:47:46.308Z,2.58
2023-02-19T12:50:12.965Z,3.75
2023-02-19T12:52:41.469Z,2.40
2023-02-19T12:55:29.312Z,2.38
2023-02-19T12:57:56.608Z,2.45
2023-02-19T13:00:35.747Z,2.47
2023-02-19T13:03:02.713Z,2.10
2023-02-19T13:05:47.233Z,2.70
2023-02-19T13:08:16.607Z,2.88
2023-02-19T13:10:45.396Z,2.30
2023-02-19T13:13:22.795Z,2.25
2023-02-19T13:15:52.539Z,2.17
2023-02-19T13:18:21.708Z,3.50
2023-02-19T13:20:51.577Z,3.85
2023-02-19T13:23:47.581Z,1.98
2023-02-19T13:26:26.393Z,2.47
2023-02-19T13:29:15.782Z,2.47
2023-02-19T13:31:55.108Z,3.92
2023-02-19T13:34:42.705Z,2.25
2023-02-19T13:37:11.223Z,2.38
2023-02-19T13:39:44.844Z,4.88
2023-02-19T13:42:23.490Z,2.72
2023-02-19T13:44:55.130Z,3.63
2023-02-19T13:47:41.548Z,4.88
2023-02-19T13:50:18.364Z,1.98
2023-02-19T13:52:44.768Z,1.65
2023-02-19T13:55:29.680Z,1.52
2023-02-19T13:58:16.243Z,2.03
2023-02-19T14:00:50.381Z,3.90
2023-02-19T14:03:29.150Z,1.63
2023-02-19T14:05:58.743Z,1.42
2023-02-19T14:08:56.526Z,2.08
2023-02-19T14:11:58.536Z,3.45
2023-02-19T14:14:34.287Z,1.63
2023-02-19T14:17:07.160Z,4.03
2023-02-19T14:19:42.714Z,2.47
2023-02-19T14:22:27.788Z,0.98
2023-02-19T14:24:54.660Z,1.88
2023-02-19T14:27:23.369Z,1.02
2023-02-19T14:29:49.835Z,1.48
2023-02-19T14:32:20.473Z,1.08
2023-02-19T14:34:49.226Z,0.80
2023-02-19T14:37:19.231Z,1.00
2023-02-19T14:39:46.276Z,0.80
2023-02-19T14:42:12.682Z,1.27
2023-02-19T14:44:57.222Z,2.13
2023-02-19T14:47:30.924Z,0.60
2023-02-19T14:52:34.306Z,0.82
2023-02-19T14:55:08.812Z,1.58
2023-02-19T14:57:39.461Z,1.73
2023-02-19T15:00:24.606Z,1.00
2023-02-19T15:02:52.167Z,1.15
2023-02-19T15:05:21.551Z,8.65
2023-02-19T15:07:48.020Z,0.90
2023-02-19T15:10:14.527Z,0.93
2023-02-19T15:12:49.265Z,1.40
2023-02-19T15:15:23.242Z,3.75
2023-02-19T15:17:52.805Z,0.90
2023-02-19T15:20:20.762Z,3.75
2023-02-19T15:22:47.406Z,1.27
2023-02-19T15:25:18.521Z,3.70
2023-02-19T15:27:46.605Z,2.47
2023-02-19T15:30:23.624Z,1.92
2023-02-19T15:32:56.907Z,2.13
2023-02-19T15:35:27.470Z,1.77
2023-02-19T15:37:55.191Z,1.30
2023-02-19T15:40:24.584Z,4.97
2023-02-19T15:42:51.622Z,2.70
2023-02-19T15:45:22.950Z,3.55
2023-02-19T15:47:51.673Z,4.50
2023-02-19T15:50:22.414Z,1.40
2023-02-19T15:53:02.303Z,1.30
2023-02-19T15:55:42.939Z,4.82
2023-02-19T15:58:14.735Z,2.95
2023-02-19T16:00:45.252Z,1.90
2023-02-19T16:03:19.035Z,2.03
2023-02-19T16:05:45.441Z,2.92
2023-02-19T16:08:11.880Z,3.20
2023-02-19T16:10:38.655Z,4.18
2023-02-19T16:13:07.123Z,1.42
2023-02-19T16:15:35.161Z,1.63
2023-02-19T16:18:01.756Z,2.75
2023-02-19T16:20:30.699Z,1.70
2023-02-19T16:23:11.931Z,3.70
2023-02-19T16:25:44.113Z,2.05
2023-02-19T16:28:11.817Z,3.17
2023-02-19T16:30:38.698Z,2.85
2023-02-19T16:33:23.649Z,2.30
2023-02-19T16:35:52.518Z,4.57
2023-02-19T16:38:20.051Z,4.03
2023-02-19T16:40:51.130Z,2.78
2023-02-19T16:43:29.110Z,3.33
2023-02-19T16:45:55.473Z,2.35
2023-02-19T16:48:22.813Z,2.42
2023-02-19T16:50:49.242Z,4.63
2023-02-19T16:53:18.677Z,3.40
2023-02-19T16:55:47.391Z,3.50
2023-02-19T16:58:13.990Z,4.20
2023-02-19T17:00:40.401Z,7.72
2023-02-19T17:03:11.122Z,4.22
2023-02-19T17:05:38.475Z,4.68
2023-02-19T17:08:09.660Z,5.35
2023-02-19T17:10:36.039Z,3.72
2023-02-19T17:13:03.781Z,4.03
2023-02-19T17:15:30.119Z,3.63
2023-02-19T17:17:56.499Z,3.72
2023-02-19T17:20:27.519Z,3.83
2023-02-19T17:22:54.382Z,3.33
2023-02-19T17:25:21.179Z,5.20
2023-02-19T17:27:47.525Z,4.53
2023-02-19T17:30:19.604Z,3.88
2023-02-19T17:32:45.935Z,3.72
2023-02-19T17:35:12.970Z,3.78
2023-02-19T17:37:39.355Z,3.60
2023-02-19T17:40:31.851Z,3.20
2023-02-19T17:42:59.573Z,3.38
2023-02-19T17:45:25.900Z,3.60
2023-02-19T17:47:52.973Z,3.00
2023-02-19T17:50:21.121Z,3.47
2023-02-19T17:52:47.567Z,2.85
2023-02-19T17:55:17.944Z,3.10
2023-02-19T17:57:44.768Z,2.85
2023-02-19T18:00:13.152Z,3.40
2023-02-19T18:02:39.788Z,3.03
2023-02-19T18:05:06.418Z,2.88
2023-02-19T18:07:32.808Z,4.47
2023-02-19T18:09:59.221Z,9.85
2023-02-19T18:12:25.905Z,2.50
2023-02-19T18:14:54.620Z,3.33
2023-02-19T18:17:20.992Z,3.38
2023-02-19T18:19:48.331Z,2.70
2023-02-19T18:22:15.034Z,6.75
2023-02-19T18:24:50.807Z,14.02
2023-02-19T18:27:18.407Z,6.93
2023-02-19T18:29:46.815Z,95.63
2023-02-19T18:32:13.109Z,6.45
2023-02-19T18:34:39.566Z,1.95
2023-02-19T18:37:05.944Z,2.08
2023-02-19T18:39:32.860Z,2.70
2023-02-19T18:42:00.681Z,2.63
2023-02-19T18:44:27.043Z,2.10
2023-02-19T18:46:53.663Z,4.45
2023-02-19T18:49:20.081Z,3.22
2023-02-19T18:51:46.960Z,6.30
2023-02-19T18:54:13.308Z,2.42
2023-02-19T18:56:40.535Z,1.38
2023-02-19T18:59:06.886Z,5.63
2023-02-19T19:01:33.909Z,1.42
2023-02-19T19:04:00.409Z,2.67
2023-02-19T19:06:28.215Z,1.80
2023-02-19T19:08:54.736Z,2.17
2023-02-19T19:11:22.787Z,2.05
2023-02-19T19:13:49.139Z,2.28
2023-02-19T19:16:17.554Z,4.45
2023-02-19T19:18:44.040Z,4.30
2023-02-19T19:21:16.291Z,39.63
2023-02-19T19:23:44.204Z,14.30
2023-02-19T19:26:11.188Z,9.20
2023-02-19T19:28:40.663Z,4.07
2023-02-19T19:31:07.103Z,5.85
2023-02-19T19:33:33.514Z,3.70
2023-02-19T19:35:59.854Z,4.43
2023-02-19T19:38:26.207Z,5.93
2023-02-19T19:40:52.869Z,3.60
2023-02-19T19:43:19.724Z,7.75
2023-02-19T19:45:46.174Z,5.22
2023-02-19T19:48:12.573Z,3.20
2023-02-19T19:50:38.957Z,3.80
2023-02-19T19:53:05.586Z,5.55
2023-02-19T19:55:31.948Z,3.50
2023-02-19T19:58:00.872Z,3.72
2023-02-19T20:00:27.694Z,11.32
2023-02-19T20:02:54.139Z,3.65
2023-02-19T20:05:20.771Z,3.70
2023-02-19T20:07:47.312Z,4.63
2023-02-19T20:10:14.389Z,7.20
2023-02-19T20:12:40.814Z,4.03
2023-02-19T20:15:07.830Z,5.07
2023-02-19T20:17:34.275Z,4.97
2023-02-19T20:20:00.698Z,4.30
2023-02-19T20:22:27.088Z,4.65
2023-02-19T20:24:54.275Z,5.00
2023-02-19T20:27:21.782Z,7.60
2023-02-19T20:29:48.189Z,12.43
2023-02-19T20:32:15.176Z,7.75
2023-02-19T20:34:41.529Z,5.80
2023-02-19T20:37:07.876Z,6.28
2023-02-19T20:39:34.665Z,9.48
2023-02-19T20:42:01.311Z,10.50
2023-02-19T20:44:28.843Z,7.65
2023-02-19T20:46:55.817Z,26.38
2023-02-19T20:49:23.364Z,11.05
2023-02-19T20:51:51.847Z,11.45
2023-02-19T20:54:18.318Z,12.07
2023-02-19T20:56:45.525Z,9.02
2023-02-19T20:59:13.803Z,10.38
2023-02-19T21:01:40.667Z,9.07
2023-02-19T21:04:07.556Z,11.82
2023-02-19T21:06:33.906Z,7.45
2023-02-19T21:09:00.458Z,18.02
2023-02-19T21:11:26.875Z,6.72
2023-02-19T21:13:53.408Z,8.93
2023-02-19T21:16:20.055Z,8.32
2023-02-19T21:18:46.831Z,8.65
2023-02-19T21:21:17.347Z,13.60
2023-02-19T21:23:45.073Z,9.05
2023-02-19T21:26:13.859Z,7.85
2023-02-19T21:28:40.533Z,9.80
2023-02-19T21:31:06.961Z,7.95
2023-02-19T21:33:35.751Z,7.75
2023-02-19T21:36:03.074Z,8.20
2023-02-19T21:38:32.612Z,10.32
2023-02-19T21:40:59.042Z,7.20
2023-02-19T21:43:25.510Z,7.93
2023-02-19T21:45:56.017Z,7.07
2023-02-19T21:48:22.604Z,8.40
2023-02-19T21:50:49.147Z,8.52
2023-02-19T21:53:15.683Z,6.63
2023-02-19T21:55:56.601Z,6.93
2023-02-19T21:58:24.472Z,8.55
2023-02-19T22:00:50.821Z,9.88
2023-02-19T22:03:17.185Z,7.13
2023-02-19T22:05:43.637Z,9.38
2023-02-19T22:08:10.049Z,11.70
2023-02-19T22:10:36.411Z,8.32
2023-02-19T22:13:02.820Z,12.98
2023-02-19T22:15:29.271Z,11.60
2023-02-19T22:17:57.744Z,12.50
2023-02-19T22:20:24.081Z,6.80
2023-02-19T22:22:50.423Z,9.90
2023-02-19T22:25:16.884Z,8.32
2023-02-19T22:27:43.313Z,13.02
2023-02-19T22:30:10.075Z,10.82
2023-02-19T22:32:38.562Z,7.80
2023-02-19T22:35:06.597Z,8.18
2023-02-19T22:37:32.965Z,10.27
2023-02-19T22:39:59.668Z,6.43
2023-02-19T22:42:26.097Z,10.00
2023-02-19T22:44:55.507Z,13.52
2023-02-19T22:47:21.820Z,13.02
2023-02-19T22:49:48.194Z,12.57
2023-02-19T22:52:14.492Z,8.73
2023-02-19T22:54:40.852Z,10.77
2023-02-19T22:57:07.288Z,12.55
2023-02-19T22:59:33.736Z,11.02
2023-02-19T23:02:00.129Z,14.23
2023-02-19T23:04:27.272Z,14.43
2023-02-19T23:06:53.711Z,10.95
2023-02-19T23:09:21.685Z,13.07
2023-02-19T23:11:48.192Z,10.70
2023-02-19T23:14:18.564Z,11.82
2023-02-19T23:16:47.069Z,9.80
2023-02-19T23:19:14.595Z,10.73
2023-02-19T23:21:42.132Z,11.57
2023-02-19T23:24:09.195Z,14.80
2023-02-19T23:26:41.575Z,16.08
2023-02-19T23:29:07.931Z,13.82
2023-02-19T23:31:34.937Z,12.32
2023-02-19T23:34:01.451Z,13.52
2023-02-19T23:36:28.139Z,13.55
2023-02-19T23:38:55.016Z,11.40
2023-02-19T23:41:21.368Z,14.32
2023-02-19T23:43:52.401Z,16.17
2023-02-19T23:46:18.946Z,12.00
2023-02-19T23:48:45.986Z,12.98
2023-02-19T23:51:12.427Z,20.55
2023-02-19T23:53:39.361Z,17.25
2023-02-19T23:56:05.941Z,14.88
2023-02-19T23:58:32.256Z,16.98
